createdAt,value
2022-08-12T00:00:34.342Z,100882.16
2022-08-12T00:03:20.896Z,100887.06
2022-08-12T00:06:09.181Z,100882.06
2022-08-12T00:08:57.869Z,100878.13
2022-08-12T00:11:45.344Z,100880.53
2022-08-12T00:14:31.793Z,100884.56
2022-08-12T00:17:18.688Z,100881.47
2022-08-12T00:20:05.221Z,100878.38
2022-08-12T00:22:59.374Z,100879.47
2022-08-12T00:26:21.141Z,100876.94
2022-08-12T00:29:02.590Z,100882.91
2022-08-12T00:31:48.618Z,100877.88
2022-08-12T00:34:35.155Z,100884.47
2022-08-12T00:37:21.273Z,100881.97
2022-08-12T00:40:11.611Z,100884.09
2022-08-12T00:42:41.647Z,100879.09
2022-08-12T00:45:11.543Z,100880.41
2022-08-12T00:47:40.993Z,100893.50
2022-08-12T00:50:18.112Z,100881.94
2022-08-12T00:52:47.704Z,100882.44
2022-08-12T00:55:18.884Z,100881.81
2022-08-12T00:57:49.057Z,100881.19
2022-08-12T01:00:21.665Z,100881.44
2022-08-12T01:02:54.268Z,100871.22
2022-08-12T01:05:43.146Z,100881.56
2022-08-12T01:08:45.062Z,100874.41
2022-08-12T01:11:33.030Z,100881.44
2022-08-12T01:14:03.346Z,100875.59
2022-08-12T01:16:32.250Z,100884.03
2022-08-12T01:19:03.324Z,100878.81
2022-08-12T01:21:58.130Z,100879.03
2022-08-12T01:24:56.183Z,100886.88
2022-08-12T01:27:25.750Z,100891.16
2022-08-12T01:29:55.684Z,100888.69
2022-08-12T01:32:27.916Z,100893.34
2022-08-12T01:35:08.072Z,100900.09
2022-08-12T01:37:38.855Z,100899.50
2022-08-12T01:40:34.204Z,100897.00
2022-08-12T01:43:04.438Z,100889.25
2022-08-12T01:45:42.887Z,100897.72
2022-08-12T01:48:20.582Z,100895.19
2022-08-12T01:51:06.160Z,100898.19
2022-08-12T01:53:50.452Z,100890.63
2022-08-12T01:56:25.066Z,100894.47
2022-08-12T01:59:16.164Z,100894.91
2022-08-12T02:01:48.047Z,100889.91
2022-08-12T02:04:42.737Z,100891.81
2022-08-12T02:07:39.272Z,100890.63
2022-08-12T02:10:50.525Z,100891.91
2022-08-12T02:13:56.664Z,100895.13
2022-08-12T02:16:40.398Z,100897.25
2022-08-12T02:19:23.382Z,100905.72
2022-08-12T02:22:12.210Z,100906.19
2022-08-12T02:24:42.664Z,100906.38
2022-08-12T02:27:13.747Z,100910.19
2022-08-12T02:29:43.689Z,100914.03
2022-08-12T02:32:12.757Z,100907.09
2022-08-12T02:34:41.573Z,100910.91
2022-08-12T02:37:15.588Z,100913.69
2022-08-12T02:39:49.815Z,100914.28
2022-08-12T02:42:22.352Z,100921.06
2022-08-12T02:44:56.523Z,100910.34
2022-08-12T02:47:59.695Z,100911.16
2022-08-12T02:50:20.573Z,100912.03
2022-08-12T02:52:52.028Z,100908.69
2022-08-12T02:55:28.833Z,100907.03
2022-08-12T02:58:12.449Z,100911.41
2022-08-12T03:00:45.672Z,100912.03
2022-08-12T03:03:15.535Z,100915.16
2022-08-12T03:05:52.566Z,100919.31
2022-08-12T03:08:32.819Z,100921.84
2022-08-12T03:11:10.153Z,100916.97
2022-08-12T03:13:43.669Z,100918.41
2022-08-12T03:16:14.634Z,100917.13
2022-08-12T03:18:46.083Z,100913.31
2022-08-12T03:21:54.613Z,100913.94
2022-08-12T03:24:09.353Z,100912.59
2022-08-12T03:26:38.732Z,100907.50
2022-08-12T03:29:08.136Z,100907.88
2022-08-12T03:31:37.986Z,100901.94
2022-08-12T03:34:09.095Z,100895.16
2022-08-12T03:36:42.207Z,100900.41
2022-08-12T03:39:36.394Z,100899.09
2022-08-12T03:42:23.215Z,100906.03
2022-08-12T03:45:16.316Z,100898.63
2022-08-12T03:48:13.398Z,100898.19
2022-08-12T03:51:06.026Z,100906.97
2022-08-12T03:53:53.169Z,100912.22
2022-08-12T03:56:39.192Z,100904.59
2022-08-12T03:59:26.480Z,100905.47
2022-08-12T04:01:57.671Z,100907.13
2022-08-12T04:04:34.289Z,100902.22
2022-08-12T04:07:04.166Z,100910.44
2022-08-12T04:09:33.151Z,100911.31
2022-08-12T04:12:19.347Z,100905.81
2022-08-12T04:14:48.683Z,100917.63
2022-08-12T04:17:17.398Z,100912.13
2022-08-12T04:19:48.175Z,100900.94
2022-08-12T04:22:16.727Z,100907.25
2022-08-12T04:24:47.699Z,100913.56
2022-08-12T04:27:19.219Z,100909.97
2022-08-12T04:30:16.475Z,100903.66
2022-08-12T04:32:42.313Z,100909.16
2022-08-12T04:35:14.188Z,100909.16
2022-08-12T04:37:58.953Z,100911.06
2022-08-12T04:40:36.573Z,100909.97
2022-08-12T04:43:06.183Z,100909.16
2022-08-12T04:45:54.624Z,100910.81
2022-08-12T04:48:23.320Z,100909.50
2022-08-12T04:50:53.181Z,100909.31
2022-08-12T04:53:21.919Z,100909.88
2022-08-12T04:55:51.441Z,100903.09
2022-08-12T04:58:29.272Z,100904.28
2022-08-12T05:00:58.556Z,100899.19
2022-08-12T05:03:28.004Z,100909.69
2022-08-12T05:05:58.197Z,100901.81
2022-08-12T05:08:26.979Z,100903.00
2022-08-12T05:10:55.588Z,100903.97
2022-08-12T05:13:27.395Z,100903.03
2022-08-12T05:16:04.176Z,100890.53
2022-08-12T05:18:39.072Z,100901.97
2022-08-12T05:21:10.630Z,100901.88
2022-08-12T05:23:40.088Z,100902.81
2022-08-12T05:26:09.039Z,100901.38
2022-08-12T05:28:37.726Z,100909.22
2022-08-12T05:31:06.799Z,100907.81
2022-08-12T05:33:37.736Z,100910.41
2022-08-12T05:36:10.486Z,100905.97
2022-08-12T05:38:58.699Z,100897.13
2022-08-12T05:41:29.357Z,100901.19
2022-08-12T05:43:59.826Z,100896.13
2022-08-12T05:46:30.269Z,100890.00
2022-08-12T05:49:00.914Z,100896.53
2022-08-12T05:51:40.091Z,100888.97
2022-08-12T05:54:12.653Z,100883.59
2022-08-12T05:56:41.707Z,100886.16
2022-08-12T05:59:12.274Z,100886.13
2022-08-12T06:02:09.752Z,100886.56
2022-08-12T06:04:32.409Z,100896.91
2022-08-12T06:07:01.972Z,100886.00
2022-08-12T06:09:31.890Z,100888.34
2022-08-12T06:12:05.621Z,100887.31
2022-08-12T06:14:37.962Z,100891.81
2022-08-12T06:17:09.649Z,100886.44
2022-08-12T06:20:27.894Z,100890.91
2022-08-12T06:22:27.284Z,100881.31
2022-08-12T06:24:57.165Z,100881.16
2022-08-12T06:27:25.693Z,100884.28
2022-08-12T06:30:08.481Z,100884.69
2022-08-12T06:32:51.869Z,100877.97
2022-08-12T06:35:49.139Z,100879.16
2022-08-12T06:38:21.777Z,100881.50
2022-08-12T06:41:13.723Z,100881.03
2022-08-12T06:44:07.187Z,100883.84
2022-08-12T06:46:32.400Z,100883.66
2022-08-12T06:49:01.223Z,100878.25
2022-08-12T06:51:32.488Z,100882.72
2022-08-12T06:54:02.403Z,100879.75
2022-08-12T06:57:02.314Z,100872.66
2022-08-12T06:59:21.873Z,100874.38
2022-08-12T07:01:51.714Z,100876.69
2022-08-12T07:04:38.992Z,100875.63
2022-08-12T07:07:09.370Z,100868.53
2022-08-12T07:10:01.328Z,100873.28
2022-08-12T07:12:28.660Z,100863.38
2022-08-12T07:14:58.292Z,100861.78
2022-08-12T07:17:36.504Z,100861.50
2022-08-12T07:20:07.059Z,100867.00
2022-08-12T07:22:35.732Z,100867.31
2022-08-12T07:43:03.649Z,100867.69
2022-08-12T07:45:32.080Z,100877.38
2022-08-12T07:48:00.651Z,100877.91
2022-08-12T07:50:29.042Z,100864.13
2022-08-12T07:53:00.040Z,100869.16
2022-08-12T07:55:29.670Z,100870.34
2022-08-12T07:58:00.846Z,100866.31
2022-08-12T08:00:32.672Z,100864.38
2022-08-12T08:03:01.372Z,100866.59
2022-08-12T08:05:33.652Z,100876.00
2022-08-12T08:08:05.011Z,100864.72
2022-08-12T08:10:33.544Z,100871.38
2022-08-12T08:13:05.249Z,100863.97
2022-08-12T08:18:27.549Z,100865.19
2022-08-12T08:20:57.669Z,100855.00
2022-08-12T08:23:56.256Z,100852.00
2022-08-12T08:26:27.268Z,100850.41
2022-08-12T08:28:55.929Z,100852.44
2022-08-12T08:31:25.664Z,100854.97
2022-08-12T08:34:09.193Z,100848.09
2022-08-12T08:36:39.110Z,100852.25
2022-08-12T08:39:08.691Z,100853.94
2022-08-12T08:42:17.784Z,100848.16
2022-08-12T08:44:44.192Z,100829.69
2022-08-12T08:47:14.563Z,100843.00
2022-08-12T08:49:43.306Z,100839.44
2022-08-12T08:52:13.057Z,100836.66
2022-08-12T08:55:01.450Z,100834.75
2022-08-12T08:57:43.013Z,100825.06
2022-08-12T09:00:16.912Z,100829.53
2022-08-12T09:02:58.488Z,100828.94
2022-08-12T09:05:43.266Z,100829.69
2022-08-12T09:12:07.414Z,100827.34
2022-08-12T09:14:18.591Z,100828.00
2022-08-12T09:19:37.888Z,100814.56
2022-08-12T09:22:08.793Z,100824.22
2022-08-12T09:24:37.835Z,100819.91
2022-08-12T09:27:12.238Z,100815.53
2022-08-12T09:30:10.895Z,100807.63
2022-08-12T09:33:03.888Z,100807.53
2022-08-12T09:35:21.843Z,100803.06
2022-08-12T09:37:59.126Z,100809.81
2022-08-12T09:41:01.393Z,100803.81
2022-08-12T09:43:37.097Z,100794.94
2022-08-12T09:46:21.579Z,100798.53
2022-08-12T09:48:55.824Z,100781.78
2022-08-12T09:51:38.314Z,100781.19
2022-08-12T09:54:34.325Z,100775.28
2022-08-12T09:58:07.112Z,100785.47
2022-08-12T10:00:15.137Z,100784.38
2022-08-12T10:02:59.402Z,100783.78
2022-08-12T10:06:27.601Z,100786.41
2022-08-12T10:08:27.618Z,100789.50
2022-08-12T10:11:20.003Z,100786.72
2022-08-12T10:13:50.205Z,100777.81
2022-08-12T10:16:22.339Z,100765.72
2022-08-12T10:18:54.831Z,100760.84
2022-08-12T10:21:36.393Z,100765.88
2022-08-12T10:24:09.493Z,100766.03
2022-08-12T10:26:57.151Z,100760.94
2022-08-12T10:30:03.736Z,100758.50
2022-08-12T10:32:44.653Z,100760.09
2022-08-12T10:35:16.745Z,100755.63
2022-08-12T10:38:34.991Z,100750.63
2022-08-12T10:40:58.883Z,100751.44
2022-08-12T10:43:54.364Z,100748.94
2022-08-12T10:46:30.698Z,100748.09
2022-08-12T10:49:06.214Z,100745.72
2022-08-12T10:52:33.390Z,100743.00
2022-08-12T10:54:41.451Z,100736.44
2022-08-12T10:57:18.634Z,100733.84
2022-08-12T11:00:35.147Z,100735.72
2022-08-12T11:04:25.040Z,100738.50
2022-08-12T11:07:09.741Z,100727.00
2022-08-12T11:08:43.494Z,100725.19
2022-08-12T11:12:36.981Z,100717.25
2022-08-12T11:14:13.039Z,100719.50
2022-08-12T11:17:22.222Z,100716.94
2022-08-12T11:19:46.665Z,100715.03
2022-08-12T11:22:18.147Z,100720.13
2022-08-12T11:24:53.821Z,100711.84
2022-08-12T11:27:23.854Z,100711.72
2022-08-12T11:30:06.567Z,100702.53
2022-08-12T11:32:38.723Z,100697.97
2022-08-12T11:35:11.446Z,100695.72
2022-08-12T11:37:58.776Z,100691.09
2022-08-12T11:40:28.480Z,100692.13
2022-08-12T11:43:03.596Z,100689.28
2022-08-12T11:45:52.947Z,100684.94
2022-08-12T11:48:26.634Z,100694.22
2022-08-12T11:50:55.820Z,100694.00
2022-08-12T11:53:58.917Z,100686.06
2022-08-12T11:56:12.731Z,100686.78
2022-08-12T12:02:01.140Z,100681.63
2022-08-12T12:04:28.842Z,100677.41
2022-08-12T12:07:06.794Z,100670.22
2022-08-12T12:09:51.790Z,100661.34
2022-08-12T12:12:23.513Z,100663.16
2022-08-12T12:14:54.595Z,100665.59
2022-08-12T12:17:26.634Z,100664.66
2022-08-12T12:20:09.833Z,100659.63
2022-08-12T12:22:39.527Z,100663.41
2022-08-12T12:25:13.020Z,100652.69
2022-08-12T12:28:05.218Z,100657.41
2022-08-12T12:30:35.501Z,100664.22
2022-08-12T12:33:06.448Z,100649.47
2022-08-12T12:36:06.149Z,100654.44
2022-08-12T12:38:25.188Z,100654.13
2022-08-12T12:40:54.926Z,100647.13
2022-08-12T12:43:28.847Z,100650.44
2022-08-12T12:46:11.698Z,100643.53
2022-08-12T12:48:44.519Z,100645.47
2022-08-12T12:51:48.806Z,100641.34
2022-08-12T12:54:09.879Z,100644.31
2022-08-12T12:56:42.716Z,100640.00
2022-08-12T12:59:54.818Z,100636.06
2022-08-12T13:02:08.163Z,100630.84
2022-08-12T13:04:38.793Z,100637.00
2022-08-12T13:07:08.086Z,100637.59
2022-08-12T13:09:37.022Z,100630.09
2022-08-12T13:12:10.400Z,100640.28
2022-08-12T13:14:40.081Z,100632.16
2022-08-12T13:17:14.588Z,100635.16
2022-08-12T13:19:46.620Z,100620.16
2022-08-12T13:22:21.017Z,100633.44
2022-08-12T13:24:55.969Z,100620.97
2022-08-12T13:27:34.965Z,100628.47
2022-08-12T13:30:10.947Z,100624.03
2022-08-12T13:32:41.922Z,100619.63
2022-08-12T13:35:19.275Z,100621.56
2022-08-12T13:37:55.363Z,100621.13
2022-08-12T13:40:25.677Z,100615.63
2022-08-12T13:42:57.763Z,100611.00
2022-08-12T13:45:29.147Z,100609.50
2022-08-12T13:47:59.950Z,100606.63
2022-08-12T13:50:33.285Z,100606.09
2022-08-12T13:53:06.334Z,100608.31
2022-08-12T13:56:01.550Z,100614.72
2022-08-12T13:58:33.098Z,100600.31
2022-08-12T14:01:06.502Z,100603.41
2022-08-12T14:03:50.444Z,100608.97
2022-08-12T14:06:25.975Z,100600.91
2022-08-12T14:08:59.745Z,100600.09
2022-08-12T14:11:47.920Z,100601.22
2022-08-12T14:14:27.952Z,100592.06
2022-08-12T14:17:02.287Z,100586.53
2022-08-12T14:19:37.961Z,100584.56
2022-08-12T14:22:10.619Z,100592.06
2022-08-12T14:24:40.772Z,100583.81
2022-08-12T14:27:11.263Z,100584.41
2022-08-12T14:30:04.635Z,100584.78
2022-08-12T14:32:35.546Z,100581.28
2022-08-12T14:35:09.262Z,100576.00
2022-08-12T14:37:55.463Z,100576.91
2022-08-12T14:40:28.596Z,100577.50
2022-08-12T14:42:59.019Z,100583.34
2022-08-12T14:45:44.299Z,100590.31
2022-08-12T14:48:16.666Z,100588.47
2022-08-12T14:52:10.797Z,100593.47
2022-08-12T14:54:49.942Z,100584.91
2022-08-12T14:59:57.342Z,100596.97
2022-08-12T15:02:23.320Z,100601.25
2022-08-12T15:04:59.310Z,100591.28
2022-08-12T15:07:34.109Z,100600.19
2022-08-12T15:10:25.425Z,100600.28
2022-08-12T15:13:07.318Z,100593.13
2022-08-12T15:15:43.939Z,100591.81
2022-08-12T15:18:21.348Z,100596.31
2022-08-12T15:20:51.475Z,100597.72
2022-08-12T15:23:21.391Z,100597.19
2022-08-12T15:25:59.777Z,100599.44
2022-08-12T15:28:33.682Z,100598.91
2022-08-12T15:31:02.914Z,100595.31
2022-08-12T15:33:50.515Z,100598.38
2022-08-12T15:36:50.270Z,100603.94
2022-08-12T15:39:17.098Z,100601.44
2022-08-12T15:41:49.669Z,100602.03
2022-08-12T15:44:42.260Z,100596.25
2022-08-12T15:47:08.793Z,100595.72
2022-08-12T15:49:54.826Z,100606.00
2022-08-12T15:52:28.555Z,100597.13
2022-08-12T15:54:58.407Z,100598.25
2022-08-12T15:57:33.578Z,100601.31
2022-08-12T16:00:07.160Z,100596.41
2022-08-12T16:02:47.398Z,100593.13
2022-08-12T16:06:17.158Z,100590.13
2022-08-12T16:08:16.368Z,100595.13
2022-08-12T16:10:45.534Z,100597.34
2022-08-12T16:13:32.256Z,100598.78
2022-08-12T16:16:03.928Z,100599.06
2022-08-12T16:18:33.958Z,100598.22
2022-08-12T16:21:02.720Z,100594.94
2022-08-12T16:23:52.139Z,100601.59
2022-08-12T16:26:32.262Z,100599.94
2022-08-12T16:29:14.706Z,100601.63
2022-08-12T16:31:44.634Z,100601.91
2022-08-12T16:34:39.761Z,100606.09
2022-08-12T16:37:07.123Z,100600.84
2022-08-12T16:40:01.067Z,100602.53
2022-08-12T16:42:28.309Z,100600.66
2022-08-12T16:45:02.282Z,100600.09
2022-08-12T16:47:44.026Z,100602.94
2022-08-12T16:50:30.971Z,100608.81
2022-08-12T16:53:03.374Z,100606.06
2022-08-12T16:55:42.538Z,100607.75
2022-08-12T16:58:18.720Z,100605.31
2022-08-12T17:01:02.225Z,100599.84
2022-08-12T17:03:35.209Z,100597.94
2022-08-12T17:06:06.620Z,100603.75
2022-08-12T17:08:35.126Z,100609.28
2022-08-12T17:11:08.406Z,100607.63
2022-08-12T17:13:37.001Z,100607.94
2022-08-12T17:16:24.151Z,100609.34
2022-08-12T17:18:57.155Z,100609.34
2022-08-12T17:21:41.697Z,100599.94
2022-08-12T17:24:21.436Z,100605.47
2022-08-12T17:26:54.167Z,100612.72
2022-08-12T17:30:00.666Z,100612.44
2022-08-12T17:32:15.698Z,100607.78
2022-08-12T17:35:08.126Z,100608.06
2022-08-12T17:37:38.768Z,100612.25
2022-08-12T17:40:17.675Z,100605.34
2022-08-12T17:43:01.162Z,100606.72
2022-08-12T17:45:31.900Z,100615.59
2022-08-12T17:48:09.428Z,100615.88
2022-08-12T17:50:42.746Z,100612.88
2022-08-12T17:53:11.611Z,100612.31
2022-08-12T17:55:47.318Z,100615.69
2022-08-12T17:58:17.888Z,100614.56
2022-08-12T18:00:48.202Z,100615.69
2022-08-12T18:03:58.167Z,100609.63
2022-08-12T18:06:13.894Z,100612.66
2022-08-12T18:08:54.819Z,100615.72
2022-08-12T18:12:06.646Z,100616.81
2022-08-12T18:14:31.505Z,100612.97
2022-08-12T18:17:02.477Z,100627.09
2022-08-12T18:19:34.075Z,100613.53
2022-08-12T18:22:30.826Z,100619.34
2022-08-12T18:25:03.753Z,100632.59
2022-08-12T18:27:44.493Z,100621.81
2022-08-12T18:30:20.993Z,100627.09
2022-08-12T18:33:04.338Z,100626.53
2022-08-12T18:35:46.332Z,100622.41
2022-08-12T18:38:17.167Z,100622.16
2022-08-12T18:41:06.069Z,100631.84
2022-08-12T18:43:57.666Z,100630.75
2022-08-12T18:46:29.901Z,100620.50
2022-08-12T18:49:17.071Z,100624.94
2022-08-12T18:51:55.558Z,100625.81
2022-08-12T18:54:35.010Z,100626.66
2022-08-12T18:57:16.370Z,100629.16
2022-08-12T19:00:01.956Z,100634.66
2022-08-12T19:02:40.396Z,100638.28
2022-08-12T19:05:11.970Z,100635.53
2022-08-12T19:08:00.035Z,100624.22
2022-08-12T19:10:31.989Z,100629.47
2022-08-12T19:13:23.417Z,100628.59
2022-08-12T19:15:57.528Z,100626.94
2022-08-12T19:18:30.922Z,100626.69
2022-08-12T19:21:06.437Z,100633.34
2022-08-12T19:23:41.710Z,100631.38
2022-08-12T19:26:12.629Z,100626.69
2022-08-12T19:28:41.780Z,100632.75
2022-08-12T19:31:56.719Z,100628.91
2022-08-12T19:34:56.444Z,100630.81
2022-08-12T19:37:20.314Z,100634.72
2022-08-12T19:40:08.755Z,100633.88
2022-08-12T19:42:44.868Z,100641.28
2022-08-12T19:45:17.683Z,100635.50
2022-08-12T19:47:46.913Z,100639.06
2022-08-12T19:50:19.992Z,100634.38
2022-08-12T19:52:51.188Z,100637.94
2022-08-12T19:55:23.550Z,100634.06
2022-08-12T19:58:01.315Z,100631.00
2022-08-12T20:00:34.955Z,100636.53
2022-08-12T20:03:07.777Z,100632.66
2022-08-12T20:06:06.240Z,100628.81
2022-08-12T20:08:34.513Z,100633.22
2022-08-12T20:12:10.249Z,100627.41
2022-08-12T20:14:00.304Z,100640.91
2022-08-12T20:19:52.571Z,100643.09
2022-08-12T20:22:24.181Z,100642.78
2022-08-12T20:25:01.091Z,100635.06
2022-08-12T20:28:04.396Z,100643.03
2022-08-12T20:30:52.333Z,100643.00
2022-08-12T20:33:18.420Z,100637.69
2022-08-12T20:36:13.424Z,100639.09
2022-08-12T20:38:46.030Z,100634.38
2022-08-12T20:41:17.608Z,100639.34
2022-08-12T20:43:52.083Z,100636.28
2022-08-12T20:46:21.393Z,100646.72
2022-08-12T20:48:54.759Z,100650.00
2022-08-12T20:51:23.930Z,100648.38
2022-08-12T20:53:59.585Z,100648.91
2022-08-12T20:56:33.547Z,100647.25
2022-08-12T20:59:06.042Z,100652.19
2022-08-12T21:01:46.308Z,100648.31
2022-08-12T21:04:33.920Z,100655.16
2022-08-12T21:07:08.703Z,100656.56
2022-08-12T21:09:42.031Z,100653.22
2022-08-12T21:12:28.527Z,100652.69
2022-08-12T21:15:24.424Z,100652.63
2022-08-12T21:18:09.131Z,100656.72
2022-08-12T21:20:42.033Z,100654.78
2022-08-12T21:23:10.477Z,100657.81
2022-08-12T21:25:45.659Z,100659.16
2022-08-12T21:28:14.894Z,100660.78
2022-08-12T21:31:10.592Z,100656.63
2022-08-12T21:33:58.293Z,100662.66
2022-08-12T21:36:22.601Z,100665.69
2022-08-12T21:38:53.968Z,100660.69
2022-08-12T21:41:24.305Z,100656.53
2022-08-12T21:43:52.722Z,100656.81
2022-08-12T21:46:34.716Z,100656.75
2022-08-12T21:49:05.444Z,100663.03
2022-08-12T21:51:50.269Z,100664.16
2022-08-12T21:54:21.869Z,100663.84
2022-08-12T21:56:53.682Z,100662.44
2022-08-12T21:59:23.117Z,100668.47
2022-08-12T22:01:54.072Z,100660.19
2022-08-12T22:04:40.410Z,100666.22
2022-08-12T22:07:09.089Z,100672.28
2022-08-12T22:09:42.635Z,100661.78
2022-08-12T22:12:29.649Z,100663.97
2022-08-12T22:14:58.172Z,100661.72
2022-08-12T22:17:50.442Z,100665.00
2022-08-12T22:20:22.368Z,100671.88
2022-08-12T22:22:59.597Z,100666.06
2022-08-12T22:25:28.708Z,100669.31
2022-08-12T22:28:15.226Z,100675.91
2022-08-12T22:31:01.844Z,100674.75
2022-08-12T22:33:54.244Z,100665.38
2022-08-12T22:36:28.981Z,100678.81
2022-08-12T22:39:00.028Z,100681.84
2022-08-12T22:41:46.134Z,100674.09
2022-08-12T22:44:32.161Z,100674.84
2022-08-12T22:47:49.707Z,100684.44
2022-08-12T22:50:28.280Z,100677.78
2022-08-12T22:53:15.401Z,100683.53
2022-08-12T22:55:59.859Z,100687.91
2022-08-12T22:58:40.283Z,100690.31
2022-08-12T23:01:11.152Z,100686.16
2022-08-12T23:03:48.180Z,100692.53
2022-08-12T23:06:23.935Z,100687.78
2022-08-12T23:08:54.648Z,100689.97
2022-08-12T23:11:25.389Z,100690.47
2022-08-12T23:14:01.833Z,100689.06
2022-08-12T23:16:34.150Z,100684.06
2022-08-12T23:19:10.613Z,100695.34
2022-08-12T23:22:05.527Z,100687.31
2022-08-12T23:24:56.704Z,100686.75
2022-08-12T23:27:51.046Z,100687.84
2022-08-12T23:30:31.050Z,100685.63
2022-08-12T23:33:01.650Z,100696.03
2022-08-12T23:35:53.475Z,100689.97
2022-08-12T23:38:30.555Z,100696.78
2022-08-12T23:41:02.059Z,100695.38
2022-08-12T23:43:39.260Z,100692.91
2022-08-12T23:46:11.649Z,100693.13
2022-08-12T23:48:41.012Z,100696.16
2022-08-12T23:51:22.398Z,100694.50
2022-08-12T23:56:25.152Z,100693.59
2022-08-12T23:58:57.465Z,100695.75
